createdAt,value
2022-07-29T00:02:27.789Z,19.90
2022-07-29T00:04:54.833Z,19.90
2022-07-29T00:07:21.888Z,19.80
2022-07-29T00:09:51.733Z,19.60
2022-07-29T00:12:26.481Z,19.40
2022-07-29T00:14:57.862Z,19.30
2022-07-29T00:17:25.613Z,19.30
2022-07-29T00:19:52.891Z,19.30
2022-07-29T00:22:21.332Z,19.40
2022-07-29T00:24:49.808Z,19.40
2022-07-29T00:27:16.967Z,19.30
2022-07-29T00:29:43.853Z,19.30
2022-07-29T00:32:10.911Z,19.30
2022-07-29T00:34:56.152Z,19.30
2022-07-29T00:37:23.098Z,19.30
2022-07-29T00:39:50.124Z,19.30
2022-07-29T00:42:17.593Z,19.30
2022-07-29T00:44:44.960Z,19.20
2022-07-29T00:47:12.982Z,19.20
2022-07-29T00:49:43.460Z,19.10
2022-07-29T00:52:12.061Z,19.10
2022-07-29T00:54:44.826Z,19.10
2022-07-29T00:57:12.618Z,19.10
2022-07-29T00:59:39.667Z,19.00
2022-07-29T01:02:06.690Z,18.90
2022-07-29T01:04:34.071Z,18.60
2022-07-29T01:07:05.059Z,18.40
2022-07-29T01:09:46.883Z,18.40
2022-07-29T01:12:22.436Z,18.40
2022-07-29T01:14:50.000Z,18.40
2022-07-29T01:17:27.804Z,18.40
2022-07-29T01:20:08.280Z,18.50
2022-07-29T01:22:38.185Z,18.50
2022-07-29T01:25:20.868Z,18.60
2022-07-29T01:28:14.850Z,18.60
2022-07-29T01:30:45.556Z,18.50
2022-07-29T01:33:36.324Z,18.50
2022-07-29T01:36:14.106Z,18.40
2022-07-29T01:38:43.899Z,18.40
2022-07-29T01:41:17.443Z,18.30
2022-07-29T01:43:57.240Z,18.30
2022-07-29T01:46:36.877Z,18.40
2022-07-29T01:49:12.353Z,18.40
2022-07-29T01:51:59.865Z,18.30
2022-07-29T01:54:47.704Z,18.20
2022-07-29T01:57:18.683Z,18.20
2022-07-29T01:59:47.445Z,18.20
2022-07-29T02:02:17.825Z,18.20
2022-07-29T02:04:49.516Z,18.20
2022-07-29T02:07:26.314Z,18.20
2022-07-29T02:09:54.780Z,18.20
2022-07-29T02:12:22.911Z,18.10
2022-07-29T02:14:53.824Z,18.00
2022-07-29T02:17:32.221Z,18.00
2022-07-29T02:20:02.637Z,17.90
2022-07-29T02:22:34.677Z,17.90
2022-07-29T02:25:03.767Z,18.00
2022-07-29T02:27:32.325Z,17.90
2022-07-29T02:30:01.551Z,18.00
2022-07-29T02:32:29.625Z,18.00
2022-07-29T02:34:57.679Z,18.00
2022-07-29T02:37:25.853Z,18.00
2022-07-29T02:39:54.879Z,18.10
2022-07-29T02:42:25.066Z,18.00
2022-07-29T02:44:52.552Z,18.00
2022-07-29T02:47:31.596Z,18.00
2022-07-29T02:50:24.880Z,18.00
2022-07-29T02:52:58.139Z,18.10
2022-07-29T02:55:33.143Z,18.00
2022-07-29T02:58:23.927Z,17.90
2022-07-29T03:00:52.808Z,17.80
2022-07-29T03:03:22.295Z,17.80
2022-07-29T03:05:49.403Z,17.80
2022-07-29T03:08:17.369Z,17.70
2022-07-29T03:10:46.649Z,17.80
2022-07-29T03:13:14.295Z,17.80
2022-07-29T03:15:43.232Z,17.80
2022-07-29T03:18:10.823Z,17.70
2022-07-29T03:20:39.687Z,17.60
2022-07-29T03:23:07.533Z,17.70
2022-07-29T03:25:34.448Z,17.70
2022-07-29T03:28:01.279Z,17.60
2022-07-29T03:30:28.957Z,17.60
2022-07-29T03:32:56.658Z,17.60
2022-07-29T03:35:25.839Z,17.50
2022-07-29T03:37:52.839Z,17.50
2022-07-29T03:40:26.959Z,17.30
2022-07-29T03:42:56.293Z,17.20
2022-07-29T03:45:24.854Z,17.10
2022-07-29T03:48:00.675Z,17.10
2022-07-29T03:50:29.612Z,17.00
2022-07-29T03:52:56.733Z,16.90
2022-07-29T03:55:24.479Z,17.00
2022-07-29T03:57:52.344Z,16.90
2022-07-29T04:00:20.542Z,16.90
2022-07-29T04:02:49.952Z,17.00
2022-07-29T04:05:18.089Z,17.00
2022-07-29T04:07:46.286Z,17.00
2022-07-29T04:10:13.351Z,17.00
2022-07-29T04:12:40.274Z,17.00
2022-07-29T04:15:07.854Z,16.90
2022-07-29T04:17:34.812Z,16.80
2022-07-29T04:20:01.696Z,16.80
2022-07-29T04:22:28.592Z,16.90
2022-07-29T04:24:58.010Z,16.80
2022-07-29T04:27:27.338Z,16.80
2022-07-29T04:29:56.563Z,16.70
2022-07-29T04:32:24.538Z,16.70
2022-07-29T04:34:51.609Z,16.70
2022-07-29T04:37:18.493Z,16.70
2022-07-29T04:39:45.385Z,16.60
2022-07-29T04:42:12.281Z,16.70
2022-07-29T04:44:41.545Z,16.70
2022-07-29T04:47:10.503Z,16.90
2022-07-29T04:49:40.322Z,16.90
2022-07-29T04:52:07.751Z,17.00
2022-07-29T04:54:34.717Z,17.10
2022-07-29T04:57:01.654Z,17.20
2022-07-29T04:59:29.211Z,17.20
2022-07-29T05:01:56.166Z,17.40
2022-07-29T05:04:24.018Z,17.40
2022-07-29T05:06:50.930Z,17.40
2022-07-29T05:09:17.876Z,17.50
2022-07-29T05:11:44.949Z,17.70
2022-07-29T05:14:11.879Z,17.70
2022-07-29T05:16:40.521Z,17.80
2022-07-29T05:19:12.248Z,17.90
2022-07-29T05:21:41.213Z,18.00
2022-07-29T05:24:08.136Z,18.10
2022-07-29T05:26:35.131Z,18.20
2022-07-29T05:29:02.027Z,18.30
2022-07-29T05:31:28.944Z,18.50
2022-07-29T05:33:55.844Z,18.50
2022-07-29T05:36:22.741Z,18.50
2022-07-29T05:38:49.655Z,18.50
2022-07-29T05:41:16.547Z,18.60
2022-07-29T05:43:43.466Z,18.80
2022-07-29T05:46:10.439Z,18.90
2022-07-29T05:48:37.633Z,19.10
2022-07-29T05:51:04.719Z,19.20
2022-07-29T05:53:31.586Z,19.30
2022-07-29T05:55:58.711Z,19.50
2022-07-29T05:58:25.600Z,19.70
2022-07-29T06:00:52.525Z,19.70
2022-07-29T06:03:19.376Z,19.80
2022-07-29T06:05:46.257Z,19.80
2022-07-29T06:08:13.143Z,20.10
2022-07-29T06:10:40.000Z,20.20
2022-07-29T06:13:07.280Z,20.30
2022-07-29T06:15:34.514Z,20.30
2022-07-29T06:18:02.297Z,20.40
2022-07-29T06:20:32.968Z,20.60
2022-07-29T06:23:00.901Z,20.80
2022-07-29T06:25:31.357Z,20.90
2022-07-29T06:27:59.207Z,21.00
2022-07-29T06:30:26.223Z,21.20
2022-07-29T06:32:53.453Z,21.20
2022-07-29T06:35:38.765Z,21.30
2022-07-29T06:38:13.783Z,21.40
2022-07-29T06:41:11.207Z,21.60
2022-07-29T06:43:50.096Z,21.80
2022-07-29T06:46:19.215Z,22.00
2022-07-29T06:48:46.917Z,22.00
2022-07-29T06:51:14.244Z,22.20
2022-07-29T06:53:59.701Z,22.40
2022-07-29T06:56:28.746Z,22.40
2022-07-29T06:58:55.609Z,22.50
2022-07-29T07:01:23.261Z,22.60
2022-07-29T07:03:50.214Z,22.60
2022-07-29T07:06:17.389Z,22.40
2022-07-29T07:08:44.761Z,22.60
2022-07-29T07:11:12.371Z,23.10
2022-07-29T07:13:39.700Z,23.50
2022-07-29T07:16:06.947Z,23.90
2022-07-29T07:18:34.124Z,24.20
2022-07-29T07:21:01.054Z,24.50
2022-07-29T07:23:28.011Z,24.60
2022-07-29T07:25:54.955Z,24.40
2022-07-29T07:28:24.820Z,24.20
2022-07-29T07:30:52.965Z,24.40
2022-07-29T07:33:20.135Z,24.50
2022-07-29T07:35:47.129Z,24.70
2022-07-29T07:38:14.268Z,24.90
2022-07-29T07:40:41.700Z,24.90
2022-07-29T07:43:08.569Z,25.10
2022-07-29T07:45:38.112Z,25.40
2022-07-29T07:48:05.939Z,25.30
2022-07-29T07:50:35.120Z,25.40
2022-07-29T07:53:03.177Z,25.60
2022-07-29T07:55:42.451Z,25.80
2022-07-29T07:58:17.098Z,26.00
2022-07-29T08:00:44.574Z,26.30
2022-07-29T08:03:16.945Z,26.20
2022-07-29T08:05:45.912Z,26.10
2022-07-29T08:08:12.813Z,26.00
2022-07-29T08:11:02.201Z,26.20
2022-07-29T08:13:32.964Z,26.40
2022-07-29T08:16:12.075Z,26.60
2022-07-29T08:18:40.263Z,26.90
2022-07-29T08:21:07.451Z,27.00
2022-07-29T08:23:46.143Z,27.00
2022-07-29T08:26:16.430Z,27.10
2022-07-29T08:28:46.819Z,27.10
2022-07-29T08:31:15.299Z,27.50
2022-07-29T08:33:42.744Z,28.00
2022-07-29T08:36:10.120Z,28.20
2022-07-29T08:38:37.238Z,28.60
2022-07-29T08:41:04.595Z,28.60
2022-07-29T08:43:32.052Z,28.40
2022-07-29T08:45:59.338Z,28.20
2022-07-29T08:48:26.366Z,28.20
2022-07-29T08:50:56.861Z,28.70
2022-07-29T08:53:27.797Z,28.90
2022-07-29T08:55:55.712Z,29.20
2022-07-29T08:58:24.767Z,29.40
2022-07-29T09:00:58.110Z,29.60
2022-07-29T09:03:28.393Z,30.00
2022-07-29T09:05:55.427Z,30.10
2022-07-29T09:08:22.974Z,30.20
2022-07-29T09:10:50.311Z,30.40
2022-07-29T09:13:17.268Z,30.60
2022-07-29T09:15:44.791Z,31.10
2022-07-29T09:18:19.789Z,31.80
2022-07-29T09:21:15.916Z,32.30
2022-07-29T09:24:00.125Z,32.40
2022-07-29T09:26:30.869Z,31.90
2022-07-29T09:28:58.939Z,31.70
2022-07-29T09:31:46.407Z,31.40
2022-07-29T09:34:15.006Z,31.30
2022-07-29T09:36:42.737Z,31.60
2022-07-29T09:39:09.813Z,31.50
2022-07-29T09:41:56.898Z,31.40
2022-07-29T09:44:25.138Z,31.50
2022-07-29T09:47:07.070Z,32.10
2022-07-29T09:49:35.927Z,32.90
2022-07-29T09:52:07.227Z,33.40
2022-07-29T09:54:40.579Z,33.20
2022-07-29T09:57:13.363Z,32.90
2022-07-29T09:59:50.111Z,33.10
2022-07-29T10:02:23.567Z,33.60
2022-07-29T10:04:50.929Z,34.00
2022-07-29T10:07:17.855Z,34.40
2022-07-29T10:09:55.691Z,34.30
2022-07-29T10:12:22.941Z,34.20
2022-07-29T10:14:50.940Z,33.70
2022-07-29T10:17:20.061Z,33.10
2022-07-29T10:19:48.186Z,31.80
2022-07-29T10:22:15.147Z,32.10
2022-07-29T10:24:42.120Z,30.60
2022-07-29T10:27:10.004Z,29.90
2022-07-29T10:29:37.336Z,29.60
2022-07-29T10:32:13.945Z,29.30
2022-07-29T10:35:21.937Z,28.70
2022-07-29T10:37:59.422Z,29.50
2022-07-29T10:41:25.583Z,30.10
2022-07-29T10:43:59.552Z,30.30
2022-07-29T10:46:27.480Z,30.00
2022-07-29T10:49:16.149Z,30.50
2022-07-29T10:52:02.295Z,30.70
2022-07-29T10:54:36.674Z,31.40
2022-07-29T10:57:25.976Z,31.80
2022-07-29T11:00:09.984Z,32.30
2022-07-29T11:02:46.744Z,32.70
2022-07-29T11:05:21.825Z,33.30
2022-07-29T11:08:20.052Z,33.50
2022-07-29T11:10:49.344Z,32.80
2022-07-29T11:14:02.144Z,33.20
2022-07-29T11:17:05.821Z,33.50
2022-07-29T11:19:34.461Z,33.40
2022-07-29T11:22:03.081Z,33.00
2022-07-29T11:24:33.188Z,32.60
2022-07-29T11:27:20.702Z,31.70
2022-07-29T11:29:54.949Z,31.30
2022-07-29T11:32:23.765Z,30.60
2022-07-29T11:35:17.116Z,30.70
2022-07-29T11:37:52.484Z,31.10
2022-07-29T11:40:24.985Z,31.40
2022-07-29T11:42:52.908Z,31.90
2022-07-29T11:45:43.190Z,32.30
2022-07-29T11:48:29.972Z,32.00
2022-07-29T11:50:59.485Z,33.00
2022-07-29T11:53:28.965Z,33.40
2022-07-29T11:56:00.761Z,34.70
2022-07-29T11:58:29.459Z,36.20
2022-07-29T12:00:57.880Z,36.20
2022-07-29T12:03:32.919Z,36.60
2022-07-29T12:06:03.615Z,36.70
2022-07-29T12:08:31.277Z,36.10
2022-07-29T12:10:58.381Z,34.80
2022-07-29T12:13:37.187Z,34.00
2022-07-29T12:16:05.523Z,34.90
2022-07-29T12:18:33.231Z,36.50
2022-07-29T12:21:04.855Z,36.80
2022-07-29T12:23:35.575Z,37.70
2022-07-29T12:26:07.456Z,37.90
2022-07-29T12:28:40.550Z,38.30
2022-07-29T12:31:15.125Z,37.00
2022-07-29T12:34:02.602Z,37.00
2022-07-29T12:36:29.677Z,37.10
2022-07-29T12:38:56.654Z,37.60
2022-07-29T12:41:23.605Z,37.50
2022-07-29T12:43:57.193Z,37.50
2022-07-29T12:46:24.209Z,37.20
2022-07-29T12:48:59.714Z,36.80
2022-07-29T12:51:30.958Z,34.20
2022-07-29T12:54:11.752Z,33.70
2022-07-29T12:56:44.359Z,34.10
2022-07-29T12:59:23.480Z,34.60
2022-07-29T13:01:53.808Z,35.00
2022-07-29T13:04:32.018Z,34.40
2022-07-29T13:07:04.512Z,35.00
2022-07-29T13:09:48.444Z,35.60
2022-07-29T13:12:16.264Z,35.20
2022-07-29T13:14:50.848Z,34.70
2022-07-29T13:17:24.105Z,34.90
2022-07-29T13:20:06.014Z,34.70
2022-07-29T13:22:35.805Z,34.20
2022-07-29T13:25:03.609Z,33.90
2022-07-29T13:27:33.826Z,33.70
2022-07-29T13:30:02.663Z,33.70
2022-07-29T13:32:31.005Z,34.50
2022-07-29T13:35:00.454Z,35.20
2022-07-29T13:37:30.972Z,36.60
2022-07-29T13:39:58.321Z,37.80
2022-07-29T13:42:25.986Z,38.10
2022-07-29T13:44:53.102Z,39.00
2022-07-29T13:47:32.788Z,38.50
2022-07-29T13:50:06.105Z,38.00
2022-07-29T13:52:34.404Z,36.60
2022-07-29T13:55:01.466Z,37.10
2022-07-29T13:57:28.843Z,37.90
2022-07-29T13:59:55.903Z,38.60
2022-07-29T14:02:25.504Z,38.70
2022-07-29T14:04:54.577Z,37.40
2022-07-29T14:07:22.052Z,36.20
2022-07-29T14:09:48.920Z,35.20
2022-07-29T14:12:15.868Z,35.80
2022-07-29T14:14:43.140Z,36.40
2022-07-29T14:17:10.573Z,36.40
2022-07-29T14:19:39.118Z,36.40
2022-07-29T14:22:08.561Z,36.90
2022-07-29T14:24:39.851Z,36.80
2022-07-29T14:27:07.988Z,35.50
2022-07-29T14:29:38.062Z,35.70
2022-07-29T14:32:07.533Z,35.90
2022-07-29T14:34:35.416Z,35.50
2022-07-29T14:37:03.849Z,34.80
2022-07-29T14:39:31.948Z,34.10
2022-07-29T14:41:59.902Z,33.40
2022-07-29T14:44:32.170Z,32.90
2022-07-29T14:47:07.815Z,33.20
2022-07-29T14:49:35.430Z,33.30
2022-07-29T14:52:02.277Z,33.20
2022-07-29T14:54:29.287Z,32.80
2022-07-29T14:56:58.421Z,32.50
2022-07-29T14:59:26.141Z,32.30
2022-07-29T15:01:54.736Z,32.20
2022-07-29T15:04:21.792Z,32.10
2022-07-29T15:06:48.983Z,32.00
2022-07-29T15:09:15.898Z,31.90
2022-07-29T15:11:42.843Z,31.70
2022-07-29T15:14:09.747Z,31.80
2022-07-29T15:16:43.554Z,31.80
2022-07-29T15:19:11.682Z,31.70
2022-07-29T15:21:48.044Z,31.40
2022-07-29T15:24:16.595Z,31.40
2022-07-29T15:26:44.360Z,31.10
2022-07-29T15:29:11.369Z,31.10
2022-07-29T15:31:38.509Z,31.10
2022-07-29T15:34:06.533Z,31.00
2022-07-29T15:39:22.326Z,30.90
2022-07-29T15:41:49.574Z,30.90
2022-07-29T15:44:16.456Z,31.00
2022-07-29T15:47:02.211Z,31.30
2022-07-29T15:49:48.700Z,31.30
2022-07-29T15:52:25.345Z,31.30
2022-07-29T15:54:56.989Z,31.30
2022-07-29T15:57:24.785Z,31.20
2022-07-29T15:59:52.082Z,31.10
2022-07-29T16:02:19.662Z,31.10
2022-07-29T16:04:47.287Z,31.00
2022-07-29T16:07:15.184Z,30.90
2022-07-29T16:09:42.813Z,31.00
2022-07-29T16:12:14.788Z,31.00
2022-07-29T16:14:42.167Z,31.10
2022-07-29T16:17:09.093Z,31.00
2022-07-29T16:19:41.212Z,30.90
2022-07-29T16:22:08.073Z,30.60
2022-07-29T16:24:34.996Z,30.40
2022-07-29T16:27:02.212Z,30.30
2022-07-29T16:29:29.405Z,30.10
2022-07-29T16:31:56.411Z,30.20
2022-07-29T16:34:23.395Z,30.10
2022-07-29T16:36:50.267Z,30.00
2022-07-29T16:39:17.105Z,30.00
2022-07-29T16:41:44.001Z,29.90
2022-07-29T16:44:10.860Z,29.80
2022-07-29T16:46:39.024Z,29.90
2022-07-29T16:49:08.491Z,30.00
2022-07-29T16:51:35.432Z,29.90
2022-07-29T16:54:02.295Z,29.90
2022-07-29T16:56:29.176Z,29.80
2022-07-29T16:58:58.455Z,29.80
2022-07-29T17:01:25.437Z,29.70
2022-07-29T17:04:07.514Z,29.60
2022-07-29T17:06:39.765Z,29.70
2022-07-29T17:09:11.416Z,29.70
2022-07-29T17:11:53.989Z,29.70
2022-07-29T17:14:25.040Z,29.70
2022-07-29T17:17:01.245Z,29.70
2022-07-29T17:19:34.233Z,29.80
2022-07-29T17:22:11.590Z,29.80
2022-07-29T17:24:41.413Z,29.60
2022-07-29T17:27:09.729Z,29.50
2022-07-29T17:29:36.758Z,29.50
2022-07-29T17:32:04.120Z,29.40
2022-07-29T17:34:35.192Z,29.30
2022-07-29T17:37:02.284Z,29.30
2022-07-29T17:39:29.270Z,29.20
2022-07-29T17:41:56.219Z,29.10
2022-07-29T17:44:23.112Z,29.10
2022-07-29T17:46:49.998Z,29.00
2022-07-29T17:49:17.081Z,29.00
2022-07-29T17:51:44.139Z,29.00
2022-07-29T17:54:11.214Z,29.00
2022-07-29T17:56:38.280Z,28.90
2022-07-29T17:59:08.512Z,28.70
2022-07-29T18:01:36.360Z,28.70
2022-07-29T18:04:03.475Z,28.60
2022-07-29T18:06:30.364Z,28.50
2022-07-29T18:08:57.392Z,28.40
2022-07-29T18:11:24.477Z,28.40
2022-07-29T18:13:51.396Z,28.30
2022-07-29T18:16:18.981Z,28.10
2022-07-29T18:18:46.180Z,28.00
2022-07-29T18:21:13.351Z,27.80
2022-07-29T18:23:40.740Z,27.80
2022-07-29T18:26:07.634Z,27.70
2022-07-29T18:28:34.604Z,27.60
2022-07-29T18:31:02.472Z,27.60
2022-07-29T18:33:29.626Z,27.50
2022-07-29T18:36:10.023Z,27.30
2022-07-29T18:38:37.853Z,27.20
2022-07-29T18:41:04.713Z,27.10
2022-07-29T18:43:31.587Z,27.00
2022-07-29T18:45:58.659Z,26.90
2022-07-29T18:48:25.547Z,26.70
2022-07-29T18:50:52.464Z,26.60
2022-07-29T18:53:19.375Z,26.60
2022-07-29T18:55:46.366Z,26.50
2022-07-29T18:58:13.254Z,26.30
2022-07-29T19:00:40.215Z,26.20
2022-07-29T19:03:08.601Z,26.20
2022-07-29T19:05:35.656Z,26.10
2022-07-29T19:08:02.606Z,26.00
2022-07-29T19:10:29.850Z,25.90
2022-07-29T19:12:57.970Z,25.80
2022-07-29T19:15:25.172Z,25.70
2022-07-29T19:17:52.213Z,25.60
2022-07-29T19:20:19.132Z,25.60
2022-07-29T19:22:46.105Z,25.50
2022-07-29T19:25:13.336Z,25.50
2022-07-29T19:27:42.039Z,25.40
2022-07-29T19:30:09.662Z,25.30
2022-07-29T19:32:37.344Z,25.20
2022-07-29T19:35:24.306Z,25.10
2022-07-29T19:37:52.425Z,25.00
2022-07-29T19:40:19.597Z,25.00
2022-07-29T19:42:48.306Z,24.90
2022-07-29T19:45:15.423Z,24.90
2022-07-29T19:47:42.323Z,24.80
2022-07-29T19:50:10.147Z,24.70
2022-07-29T19:52:37.097Z,24.60
2022-07-29T19:55:07.820Z,24.60
2022-07-29T19:57:40.570Z,24.50
2022-07-29T20:00:13.425Z,24.40
2022-07-29T20:02:41.699Z,24.30
2022-07-29T20:05:10.544Z,24.30
2022-07-29T20:07:38.620Z,24.20
2022-07-29T20:10:07.734Z,24.10
2022-07-29T20:12:35.893Z,24.00
2022-07-29T20:15:03.103Z,23.90
2022-07-29T20:17:30.022Z,23.90
2022-07-29T20:19:57.122Z,23.80
2022-07-29T20:22:24.036Z,23.70
2022-07-29T20:24:50.941Z,23.70
2022-07-29T20:27:18.872Z,23.60
2022-07-29T20:29:45.757Z,23.50
2022-07-29T20:32:12.685Z,23.40
2022-07-29T20:34:42.983Z,23.40
2022-07-29T20:37:11.401Z,23.40
2022-07-29T20:39:38.516Z,23.30
2022-07-29T20:42:05.983Z,23.30
2022-07-29T20:44:32.935Z,23.30
2022-07-29T20:47:00.028Z,23.30
2022-07-29T20:49:27.125Z,23.20
2022-07-29T20:51:54.034Z,23.20
2022-07-29T20:54:20.870Z,23.10
2022-07-29T20:56:47.804Z,23.10
2022-07-29T20:59:14.657Z,23.00
2022-07-29T21:01:41.529Z,23.00
2022-07-29T21:04:08.452Z,22.90
2022-07-29T21:06:35.367Z,22.90
2022-07-29T21:09:02.252Z,22.80
2022-07-29T21:11:44.670Z,22.80
2022-07-29T21:14:30.461Z,22.80
2022-07-29T21:16:57.714Z,22.70
2022-07-29T21:19:24.762Z,22.70
2022-07-29T21:21:51.627Z,22.70
2022-07-29T21:24:19.196Z,22.60
2022-07-29T21:26:50.757Z,22.70
2022-07-29T21:29:33.227Z,22.70
2022-07-29T21:32:00.319Z,22.60
2022-07-29T21:34:28.139Z,22.50
2022-07-29T21:36:54.980Z,22.50
2022-07-29T21:39:21.982Z,22.40
2022-07-29T21:41:49.152Z,22.40
2022-07-29T21:44:16.254Z,22.30
2022-07-29T21:46:43.123Z,22.30
2022-07-29T21:49:10.039Z,22.20
2022-07-29T21:51:37.063Z,22.10
2022-07-29T21:54:04.428Z,22.00
2022-07-29T21:56:31.427Z,21.90
2022-07-29T21:58:58.786Z,21.90
2022-07-29T22:01:25.742Z,21.80
2022-07-29T22:03:52.701Z,21.80
2022-07-29T22:06:19.751Z,21.70
2022-07-29T22:08:48.018Z,21.60
2022-07-29T22:11:15.023Z,21.60
2022-07-29T22:13:41.951Z,21.50
2022-07-29T22:16:10.261Z,21.40
2022-07-29T22:18:37.138Z,21.30
2022-07-29T22:21:04.468Z,21.30
2022-07-29T22:23:31.466Z,21.20
2022-07-29T22:25:58.453Z,21.10
2022-07-29T22:28:25.305Z,21.10
2022-07-29T22:30:52.191Z,21.00
2022-07-29T22:33:19.094Z,21.00
2022-07-29T22:35:48.631Z,21.00
2022-07-29T22:38:19.133Z,21.00
2022-07-29T22:40:48.577Z,21.00
2022-07-29T22:43:15.902Z,21.00
2022-07-29T22:45:42.789Z,21.00
2022-07-29T22:48:10.582Z,20.90
2022-07-29T22:50:38.443Z,20.90
2022-07-29T22:53:05.354Z,20.80
2022-07-29T22:55:32.211Z,20.70
2022-07-29T22:57:59.144Z,20.60
2022-07-29T23:00:26.209Z,20.60
2022-07-29T23:02:53.066Z,20.60
2022-07-29T23:05:20.029Z,20.40
2022-07-29T23:07:46.924Z,20.30
2022-07-29T23:10:13.839Z,20.20
2022-07-29T23:12:40.729Z,20.10
2022-07-29T23:15:07.932Z,20.10
2022-07-29T23:17:36.288Z,20.10
2022-07-29T23:20:07.888Z,20.00
2022-07-29T23:22:35.909Z,20.00
2022-07-29T23:25:02.853Z,20.00
2022-07-29T23:27:29.772Z,19.90
2022-07-29T23:29:56.648Z,19.90
2022-07-29T23:32:23.523Z,19.80
2022-07-29T23:34:50.457Z,19.70
2022-07-29T23:37:17.350Z,19.70
2022-07-29T23:39:44.202Z,19.60
2022-07-29T23:42:11.071Z,19.50
2022-07-29T23:44:37.967Z,19.40
2022-07-29T23:47:04.901Z,19.40
2022-07-29T23:49:31.835Z,19.30
2022-07-29T23:51:58.877Z,19.20
2022-07-29T23:54:25.745Z,19.10
2022-07-29T23:56:52.624Z,18.90
2022-07-29T23:59:19.806Z,18.80
